sensor_id;sensor_type;location;lat;lon;timestamp;pressure;altitude;pressure_sealevel;temperature;humidity
61870;BME280;47810;42.264;23.826;2023-04-03T00:00:41;93209.47;;;7.47;55.86
61870;BME280;47810;42.264;23.826;2023-04-03T00:03:07;93205.94;;;7.48;55.97
61870;BME280;47810;42.264;23.826;2023-04-03T00:05:32;93209.91;;;7.27;56.36
61870;BME280;47810;42.264;23.826;2023-04-03T00:07:58;93204.47;;;7.30;55.89
61870;BME280;47810;42.264;23.826;2023-04-03T00:10:24;93205.38;;;7.43;55.88
61870;BME280;47810;42.264;23.826;2023-04-03T00:12:49;93198.25;;;7.31;56.52
61870;BME280;47810;42.264;23.826;2023-04-03T00:15:15;93205.38;;;7.29;56.21
61870;BME280;47810;42.264;23.826;2023-04-03T00:17:40;93196.13;;;7.23;56.38
61870;BME280;47810;42.264;23.826;2023-04-03T00:20:06;93192.81;;;7.34;56.45
61870;BME280;47810;42.264;23.826;2023-04-03T00:22:34;93197.03;;;7.36;56.16
61870;BME280;47810;42.264;23.826;2023-04-03T00:25:00;93201.25;;;7.39;56.40
61870;BME280;47810;42.264;23.826;2023-04-03T00:27:26;93201.91;;;7.28;56.35
61870;BME280;47810;42.264;23.826;2023-04-03T00:29:51;93202.88;;;7.27;56.64
61870;BME280;47810;42.264;23.826;2023-04-03T00:32:17;93204.84;;;7.09;57.76
61870;BME280;47810;42.264;23.826;2023-04-03T00:34:43;93197.84;;;6.95;58.56
61870;BME280;47810;42.264;23.826;2023-04-03T00:37:09;93193.16;;;6.86;58.50
61870;BME280;47810;42.264;23.826;2023-04-03T00:39:34;93192.59;;;6.95;57.97
61870;BME280;47810;42.264;23.826;2023-04-03T00:42:00;93196.16;;;6.94;57.67
61870;BME280;47810;42.264;23.826;2023-04-03T00:46:54;93198.13;;;7.05;57.29
61870;BME280;47810;42.264;23.826;2023-04-03T00:49:20;93201.69;;;7.04;57.34
61870;BME280;47810;42.264;23.826;2023-04-03T00:51:45;93198.22;;;7.04;57.46
61870;BME280;47810;42.264;23.826;2023-04-03T00:54:11;93193.50;;;7.09;57.41
61870;BME280;47810;42.264;23.826;2023-04-03T00:56:37;93199.34;;;6.99;57.44
61870;BME280;47810;42.264;23.826;2023-04-03T01:01:29;93197.38;;;6.89;58.44
61870;BME280;47810;42.264;23.826;2023-04-03T01:03:56;93199.06;;;6.90;58.03
61870;BME280;47810;42.264;23.826;2023-04-03T01:06:26;93198.88;;;6.93;57.64
61870;BME280;47810;42.264;23.826;2023-04-03T01:08:52;93198.22;;;6.89;58.18
61870;BME280;47810;42.264;23.826;2023-04-03T01:11:19;93193.63;;;6.93;57.98
61870;BME280;47810;42.264;23.826;2023-04-03T01:13:46;93194.19;;;6.98;57.59
61870;BME280;47810;42.264;23.826;2023-04-03T01:16:12;93196.34;;;6.91;58.45
61870;BME280;47810;42.264;23.826;2023-04-03T01:18:38;93197.94;;;6.94;58.21
61870;BME280;47810;42.264;23.826;2023-04-03T01:23:37;93195.72;;;6.88;58.59
61870;BME280;47810;42.264;23.826;2023-04-03T01:26:06;93200.38;;;6.83;58.65
61870;BME280;47810;42.264;23.826;2023-04-03T01:28:33;93207.13;;;7.01;58.47
61870;BME280;47810;42.264;23.826;2023-04-03T01:33:24;93213.66;;;7.22;58.82
61870;BME280;47810;42.264;23.826;2023-04-03T01:35:50;93221.75;;;7.19;59.16
61870;BME280;47810;42.264;23.826;2023-04-03T01:38:15;93220.31;;;7.14;59.66
61870;BME280;47810;42.264;23.826;2023-04-03T01:40:41;93209.84;;;6.99;60.16
61870;BME280;47810;42.264;23.826;2023-04-03T01:43:07;93211.53;;;7.00;60.30
61870;BME280;47810;42.264;23.826;2023-04-03T01:45:32;93208.81;;;6.73;60.89
61870;BME280;47810;42.264;23.826;2023-04-03T01:47:58;93214.81;;;6.75;61.68
61870;BME280;47810;42.264;23.826;2023-04-03T01:50:23;93209.38;;;6.64;61.48
61870;BME280;47810;42.264;23.826;2023-04-03T01:52:49;93212.38;;;6.58;62.11
61870;BME280;47810;42.264;23.826;2023-04-03T01:55:14;93203.19;;;6.80;61.23
61870;BME280;47810;42.264;23.826;2023-04-03T01:57:58;93203.38;;;6.91;61.10
61870;BME280;47810;42.264;23.826;2023-04-03T02:00:24;93199.44;;;6.84;61.22
61870;BME280;47810;42.264;23.826;2023-04-03T02:02:49;93194.78;;;6.74;61.33
61870;BME280;47810;42.264;23.826;2023-04-03T02:05:15;93191.78;;;6.66;60.74
61870;BME280;47810;42.264;23.826;2023-04-03T02:07:41;93195.91;;;6.56;60.68
61870;BME280;47810;42.264;23.826;2023-04-03T02:10:06;93186.06;;;6.60;60.09
61870;BME280;47810;42.264;23.826;2023-04-03T02:12:32;93194.78;;;6.74;60.03
61870;BME280;47810;42.264;23.826;2023-04-03T02:14:57;93192.34;;;6.71;59.98
61870;BME280;47810;42.264;23.826;2023-04-03T02:17:23;93196.47;;;6.75;59.59
61870;BME280;47810;42.264;23.826;2023-04-03T02:19:48;93191.59;;;6.69;59.99
61870;BME280;47810;42.264;23.826;2023-04-03T02:22:14;93190.06;;;6.80;60.38
61870;BME280;47810;42.264;23.826;2023-04-03T02:24:40;93188.00;;;6.99;59.79
61870;BME280;47810;42.264;23.826;2023-04-03T02:27:06;93193.06;;;7.02;60.19
61870;BME280;47810;42.264;23.826;2023-04-03T02:29:32;93189.69;;;7.00;61.20
61870;BME280;47810;42.264;23.826;2023-04-03T02:31:57;93179.03;;;6.74;61.55
61870;BME280;47810;42.264;23.826;2023-04-03T02:34:23;93179.78;;;6.76;61.63
61870;BME280;47810;42.264;23.826;2023-04-03T02:36:48;93184.84;;;6.65;62.12
61870;BME280;47810;42.264;23.826;2023-04-03T02:39:15;93177.53;;;6.85;61.69
61870;BME280;47810;42.264;23.826;2023-04-03T02:41:40;93170.50;;;6.57;62.68
61870;BME280;47810;42.264;23.826;2023-04-03T02:44:06;93163.00;;;6.50;61.52
61870;BME280;47810;42.264;23.826;2023-04-03T02:46:32;93164.03;;;6.34;62.13
61870;BME280;47810;42.264;23.826;2023-04-03T02:48:58;93166.56;;;6.49;61.52
61870;BME280;47810;42.264;23.826;2023-04-03T02:51:24;93161.59;;;6.45;61.73
61870;BME280;47810;42.264;23.826;2023-04-03T02:53:49;93160.09;;;6.69;61.58
61870;BME280;47810;42.264;23.826;2023-04-03T02:56:16;93169.84;;;6.82;61.57
61870;BME280;47810;42.264;23.826;2023-04-03T02:58:42;93163.09;;;6.78;61.95
61870;BME280;47810;42.264;23.826;2023-04-03T03:01:08;93163.50;;;6.71;62.11
61870;BME280;47810;42.264;23.826;2023-04-03T03:03:33;93160.28;;;6.66;62.73
61870;BME280;47810;42.264;23.826;2023-04-03T03:06:05;93159.53;;;6.50;63.30
61870;BME280;47810;42.264;23.826;2023-04-03T03:08:31;93164.41;;;6.27;64.45
61870;BME280;47810;42.264;23.826;2023-04-03T03:10:56;93154.50;;;6.47;63.87
61870;BME280;47810;42.264;23.826;2023-04-03T03:13:22;93154.56;;;6.31;63.55
61870;BME280;47810;42.264;23.826;2023-04-03T03:15:47;93149.53;;;6.42;64.01
61870;BME280;47810;42.264;23.826;2023-04-03T03:18:13;93150.34;;;6.28;64.83
61870;BME280;47810;42.264;23.826;2023-04-03T03:20:39;93152.06;;;6.29;64.43
61870;BME280;47810;42.264;23.826;2023-04-03T03:23:05;93151.88;;;6.33;64.42
61870;BME280;47810;42.264;23.826;2023-04-03T03:25:30;93146.63;;;6.33;64.85
61870;BME280;47810;42.264;23.826;2023-04-03T03:27:56;93149.78;;;6.38;64.34
61870;BME280;47810;42.264;23.826;2023-04-03T03:30:21;93147.72;;;6.28;64.55
61870;BME280;47810;42.264;23.826;2023-04-03T03:32:47;93140.41;;;6.19;65.42
61870;BME280;47810;42.264;23.826;2023-04-03T03:35:12;93139.31;;;6.38;65.04
61870;BME280;47810;42.264;23.826;2023-04-03T03:37:38;93140.81;;;6.27;64.98
61870;BME280;47810;42.264;23.826;2023-04-03T03:40:04;93136.69;;;6.23;65.47
61870;BME280;47810;42.264;23.826;2023-04-03T03:42:29;93134.16;;;6.22;65.21
61870;BME280;47810;42.264;23.826;2023-04-03T03:44:55;93147.66;;;6.30;64.96
61870;BME280;47810;42.264;23.826;2023-04-03T03:47:21;93149.44;;;6.44;64.69
61870;BME280;47810;42.264;23.826;2023-04-03T03:49:46;93154.22;;;6.23;65.22
61870;BME280;47810;42.264;23.826;2023-04-03T03:52:12;93155.22;;;6.35;64.45
61870;BME280;47810;42.264;23.826;2023-04-03T03:54:37;93155.59;;;6.28;64.77
61870;BME280;47810;42.264;23.826;2023-04-03T03:57:03;93144.16;;;6.15;65.64
61870;BME280;47810;42.264;23.826;2023-04-03T03:59:28;93145.38;;;6.10;65.47
61870;BME280;47810;42.264;23.826;2023-04-03T04:01:54;93153.44;;;6.21;65.04
61870;BME280;47810;42.264;23.826;2023-04-03T04:04:20;93145.09;;;6.28;64.73
61870;BME280;47810;42.264;23.826;2023-04-03T04:06:46;93140.41;;;6.19;64.90
61870;BME280;47810;42.264;23.826;2023-04-03T04:09:11;93144.16;;;6.15;65.01
61870;BME280;47810;42.264;23.826;2023-04-03T04:11:37;93148.28;;;6.05;65.39
61870;BME280;47810;42.264;23.826;2023-04-03T04:14:05;93152.19;;;5.98;65.50
61870;BME280;47810;42.264;23.826;2023-04-03T04:16:30;93155.91;;;5.94;65.04
61870;BME280;47810;42.264;23.826;2023-04-03T04:18:56;93152.69;;;6.04;65.65
61870;BME280;47810;42.264;23.826;2023-04-03T04:21:21;93164.72;;;5.93;65.74
61870;BME280;47810;42.264;23.826;2023-04-03T04:23:47;93171.44;;;5.97;65.44
61870;BME280;47810;42.264;23.826;2023-04-03T04:26:12;93172.22;;;5.99;65.09
61870;BME280;47810;42.264;23.826;2023-04-03T04:28:39;93171.44;;;5.97;65.23
61870;BME280;47810;42.264;23.826;2023-04-03T04:31:04;93183.03;;;5.93;64.99
61870;BME280;47810;42.264;23.826;2023-04-03T04:33:30;93180.13;;;5.67;65.89
61870;BME280;47810;42.264;23.826;2023-04-03T04:35:55;93186.88;;;5.71;67.02
61870;BME280;47810;42.264;23.826;2023-04-03T04:38:22;93195.63;;;5.86;66.66
61870;BME280;47810;42.264;23.826;2023-04-03T04:40:48;93190.78;;;5.64;67.31
61870;BME280;47810;42.264;23.826;2023-04-03T04:43:14;93190.78;;;5.64;67.12
61870;BME280;47810;42.264;23.826;2023-04-03T04:45:41;93197.81;;;5.48;67.16
61870;BME280;47810;42.264;23.826;2023-04-03T04:48:07;93200.44;;;5.48;68.23
61870;BME280;47810;42.264;23.826;2023-04-03T04:50:33;93188.75;;;5.69;68.18
61870;BME280;47810;42.264;23.826;2023-04-03T04:52:58;93187.47;;;5.76;68.08
61870;BME280;47810;42.264;23.826;2023-04-03T04:55:24;93196.81;;;5.80;67.45
61870;BME280;47810;42.264;23.826;2023-04-03T04:57:49;93200.50;;;5.92;66.73
61870;BME280;47810;42.264;23.826;2023-04-03T05:00:15;93215.41;;;5.92;66.49
61870;BME280;47810;42.264;23.826;2023-04-03T05:02:41;93217.25;;;5.90;66.78
61870;BME280;47810;42.264;23.826;2023-04-03T05:05:06;93207.28;;;5.96;66.62
61870;BME280;47810;42.264;23.826;2023-04-03T05:07:32;93215.38;;;6.07;65.83
61870;BME280;47810;42.264;23.826;2023-04-03T05:09:58;93218.19;;;6.04;65.71
61870;BME280;47810;42.264;23.826;2023-04-03T05:12:23;93210.69;;;6.13;65.86
61870;BME280;47810;42.264;23.826;2023-04-03T05:14:49;93218.53;;;5.98;66.85
61870;BME280;47810;42.264;23.826;2023-04-03T05:17:14;93216.41;;;6.05;67.58
61870;BME280;47810;42.264;23.826;2023-04-03T05:19:40;93213.44;;;6.11;68.00
61870;BME280;47810;42.264;23.826;2023-04-03T05:22:06;93215.34;;;6.23;68.55
61870;BME280;47810;42.264;23.826;2023-04-03T05:24:31;93221.13;;;6.14;68.32
61870;BME280;47810;42.264;23.826;2023-04-03T05:26:57;93214.41;;;6.39;68.50
61870;BME280;47810;42.264;23.826;2023-04-03T05:29:22;93209.66;;;6.60;68.53
61870;BME280;47810;42.264;23.826;2023-04-03T05:31:51;93202.44;;;6.63;68.65
61870;BME280;47810;42.264;23.826;2023-04-03T05:34:16;93201.34;;;6.82;66.45
61870;BME280;47810;42.264;23.826;2023-04-03T05:36:42;93203.28;;;6.64;66.50
61870;BME280;47810;42.264;23.826;2023-04-03T05:39:08;93210.25;;;6.65;66.92
61870;BME280;47810;42.264;23.826;2023-04-03T05:41:33;93212.94;;;6.92;66.33
61870;BME280;47810;42.264;23.826;2023-04-03T05:43:59;93217.81;;;6.98;65.16
61870;BME280;47810;42.264;23.826;2023-04-03T05:46:26;93213.31;;;7.00;65.23
61870;BME280;47810;42.264;23.826;2023-04-03T05:48:51;93216.28;;;7.22;66.22
61870;BME280;47810;42.264;23.826;2023-04-03T05:51:24;93217.78;;;7.27;65.05
61870;BME280;47810;42.264;23.826;2023-04-03T05:56:48;93203.13;;;7.37;64.82
61870;BME280;47810;42.264;23.826;2023-04-03T05:59:13;93202.34;;;7.49;62.95
61870;BME280;47810;42.264;23.826;2023-04-03T06:01:39;93211.25;;;7.74;61.10
61870;BME280;47810;42.264;23.826;2023-04-03T06:04:04;93203.63;;;7.56;62.46
61870;BME280;47810;42.264;23.826;2023-04-03T06:06:47;93201.06;;;7.69;63.88
61870;BME280;47810;42.264;23.826;2023-04-03T06:09:13;93207.94;;;7.84;63.57
61870;BME280;47810;42.264;23.826;2023-04-03T06:11:38;93215.41;;;7.78;64.07
61870;BME280;47810;42.264;23.826;2023-04-03T06:14:04;93215.41;;;7.78;64.64
61870;BME280;47810;42.264;23.826;2023-04-03T06:16:30;93212.41;;;7.97;63.98
61870;BME280;47810;42.264;23.826;2023-04-03T06:18:55;93212.97;;;8.14;62.82
61870;BME280;47810;42.264;23.826;2023-04-03T06:21:22;93205.69;;;8.05;62.52
61870;BME280;47810;42.264;23.826;2023-04-03T06:23:47;93204.81;;;7.92;63.29
61870;BME280;47810;42.264;23.826;2023-04-03T06:26:13;93215.06;;;8.09;63.51
61870;BME280;47810;42.264;23.826;2023-04-03T06:28:38;93212.03;;;8.15;63.22
61870;BME280;47810;42.264;23.826;2023-04-03T06:31:07;93204.22;;;8.41;60.27
61870;BME280;47810;42.264;23.826;2023-04-03T06:33:41;93197.59;;;8.48;59.61
61870;BME280;47810;42.264;23.826;2023-04-03T06:36:07;93209.59;;;8.52;59.66
61870;BME280;47810;42.264;23.826;2023-04-03T06:38:33;93224.56;;;8.37;60.38
61870;BME280;47810;42.264;23.826;2023-04-03T06:40:59;93219.91;;;8.55;58.93
61870;BME280;47810;42.264;23.826;2023-04-03T06:43:25;93215.63;;;8.67;59.51
61870;BME280;47810;42.264;23.826;2023-04-03T06:45:51;93221.09;;;8.77;59.36
61870;BME280;47810;42.264;23.826;2023-04-03T06:48:18;93196.84;;;8.72;58.58
61870;BME280;47810;42.264;23.826;2023-04-03T06:50:47;93195.91;;;8.73;60.76
61870;BME280;47810;42.264;23.826;2023-04-03T06:53:13;93195.19;;;8.45;62.24
61870;BME280;47810;42.264;23.826;2023-04-03T06:55:40;93198.94;;;8.79;61.13
61870;BME280;47810;42.264;23.826;2023-04-03T06:58:06;93193.38;;;8.97;59.70
61870;BME280;47810;42.264;23.826;2023-04-03T07:00:32;93194.00;;;9.00;58.76
61870;BME280;47810;42.264;23.826;2023-04-03T07:02:59;93194.34;;;8.96;58.70
61870;BME280;47810;42.264;23.826;2023-04-03T07:05:40;93194.22;;;8.97;60.32
61870;BME280;47810;42.264;23.826;2023-04-03T07:08:13;93209.13;;;9.35;58.76
61870;BME280;47810;42.264;23.826;2023-04-03T07:10:38;93201.28;;;9.46;58.02
61870;BME280;47810;42.264;23.826;2023-04-03T07:13:04;93197.31;;;9.41;58.71
61870;BME280;47810;42.264;23.826;2023-04-03T07:15:32;93200.63;;;9.55;59.62
61870;BME280;47810;42.264;23.826;2023-04-03T07:17:58;93196.56;;;9.63;58.95
61870;BME280;47810;42.264;23.826;2023-04-03T07:20:24;93183.47;;;9.74;58.81
61870;BME280;47810;42.264;23.826;2023-04-03T07:22:51;93174.88;;;9.59;59.90
61870;BME280;47810;42.264;23.826;2023-04-03T07:25:18;93180.31;;;9.69;60.06
61870;BME280;47810;42.264;23.826;2023-04-03T07:27:45;93181.59;;;9.76;59.28
61870;BME280;47810;42.264;23.826;2023-04-03T07:30:11;93180.81;;;9.50;58.31
61870;BME280;47810;42.264;23.826;2023-04-03T07:32:44;93172.19;;;9.72;59.79
61870;BME280;47810;42.264;23.826;2023-04-03T07:35:10;93178.53;;;9.93;57.60
61870;BME280;47810;42.264;23.826;2023-04-03T07:37:38;93182.69;;;10.09;58.40
61870;BME280;47810;42.264;23.826;2023-04-03T07:40:07;93179.66;;;10.26;58.48
61870;BME280;47810;42.264;23.826;2023-04-03T07:42:37;93172.00;;;10.34;57.45
61870;BME280;47810;42.264;23.826;2023-04-03T07:45:03;93168.78;;;10.42;58.90
61870;BME280;47810;42.264;23.826;2023-04-03T07:47:31;93169.97;;;10.38;57.34
61870;BME280;47810;42.264;23.826;2023-04-03T07:49:57;93172.06;;;10.68;54.62
61870;BME280;47810;42.264;23.826;2023-04-03T07:52:23;93173.88;;;10.67;52.55
61870;BME280;47810;42.264;23.826;2023-04-03T07:54:53;93170.84;;;10.72;52.67
61870;BME280;47810;42.264;23.826;2023-04-03T07:57:20;93174.72;;;10.79;54.50
61870;BME280;47810;42.264;23.826;2023-04-03T07:59:45;93178.94;;;11.04;53.51
61870;BME280;47810;42.264;23.826;2023-04-03T08:02:11;93177.03;;;11.17;53.23
61870;BME280;47810;42.264;23.826;2023-04-03T08:04:37;93171.88;;;11.27;53.21
61870;BME280;47810;42.264;23.826;2023-04-03T08:07:10;93169.91;;;11.29;53.41
61870;BME280;47810;42.264;23.826;2023-04-03T08:12:28;93172.59;;;11.18;53.58
61870;BME280;47810;42.264;23.826;2023-04-03T08:14:55;93177.16;;;11.27;53.23
61870;BME280;47810;42.264;23.826;2023-04-03T08:17:23;93163.94;;;11.27;53.77
61870;BME280;47810;42.264;23.826;2023-04-03T08:19:50;93168.63;;;11.12;53.69
61870;BME280;47810;42.264;23.826;2023-04-03T08:22:33;93166.34;;;11.08;55.07
61870;BME280;47810;42.264;23.826;2023-04-03T08:24:59;93155.75;;;11.19;54.41
61870;BME280;47810;42.264;23.826;2023-04-03T08:27:27;93150.00;;;11.25;53.57
61870;BME280;47810;42.264;23.826;2023-04-03T08:29:54;93149.50;;;11.20;54.70
61870;BME280;47810;42.264;23.826;2023-04-03T08:32:19;93146.63;;;11.34;54.48
61870;BME280;47810;42.264;23.826;2023-04-03T08:34:45;93144.91;;;11.45;54.42
61870;BME280;47810;42.264;23.826;2023-04-03T08:37:11;93136.16;;;11.44;53.28
61870;BME280;47810;42.264;23.826;2023-04-03T08:39:37;93129.56;;;11.38;52.28
61870;BME280;47810;42.264;23.826;2023-04-03T08:42:03;93121.16;;;11.22;51.95
61870;BME280;47810;42.264;23.826;2023-04-03T08:44:39;93118.56;;;11.11;53.62
61870;BME280;47810;42.264;23.826;2023-04-03T08:47:14;93121.66;;;11.27;53.19
61870;BME280;47810;42.264;23.826;2023-04-03T08:49:45;93119.22;;;11.35;53.64
61870;BME280;47810;42.264;23.826;2023-04-03T08:55:01;93115.34;;;11.51;54.01
61870;BME280;47810;42.264;23.826;2023-04-03T08:57:30;93115.59;;;11.59;52.70
61870;BME280;47810;42.264;23.826;2023-04-03T08:59:59;93112.50;;;11.75;52.55
61870;BME280;47810;42.264;23.826;2023-04-03T09:04:52;93120.06;;;11.79;53.33
61870;BME280;47810;42.264;23.826;2023-04-03T09:07:21;93117.03;;;11.84;52.81
61870;BME280;47810;42.264;23.826;2023-04-03T09:09:48;93121.28;;;11.86;52.59
61870;BME280;47810;42.264;23.826;2023-04-03T09:12:26;93112.13;;;11.91;52.85
61870;BME280;47810;42.264;23.826;2023-04-03T09:20:49;93104.47;;;11.76;53.00
61870;BME280;47810;42.264;23.826;2023-04-03T09:22:41;93104.47;;;11.76;52.64
61870;BME280;47810;42.264;23.826;2023-04-03T09:25:23;93102.53;;;11.78;52.98
61870;BME280;47810;42.264;23.826;2023-04-03T09:27:51;93094.13;;;11.73;53.48
61870;BME280;47810;42.264;23.826;2023-04-03T09:30:18;93095.28;;;11.80;53.58
61870;BME280;47810;42.264;23.826;2023-04-03T09:32:45;93093.63;;;11.79;54.02
61870;BME280;47810;42.264;23.826;2023-04-03T09:40:04;93089.53;;;11.86;53.19
61870;BME280;47810;42.264;23.826;2023-04-03T09:42:30;93098.44;;;11.85;53.54
61870;BME280;47810;42.264;23.826;2023-04-03T09:44:59;93091.47;;;11.84;52.59
61870;BME280;47810;42.264;23.826;2023-04-03T09:47:33;93094.53;;;12.01;52.89
61870;BME280;47810;42.264;23.826;2023-04-03T09:50:18;93099.28;;;12.07;52.72
61870;BME280;47810;42.264;23.826;2023-04-03T09:52:48;93098.84;;;12.02;52.34
61870;BME280;47810;42.264;23.826;2023-04-03T09:55:15;93097.03;;;12.02;52.53
61870;BME280;47810;42.264;23.826;2023-04-03T09:57:42;93095.69;;;12.08;52.78
61870;BME280;47810;42.264;23.826;2023-04-03T10:00:22;93097.78;;;12.04;51.28
61870;BME280;47810;42.264;23.826;2023-04-03T10:02:52;93099.09;;;11.99;51.69
61870;BME280;47810;42.264;23.826;2023-04-03T10:05:33;93102.28;;;11.81;52.48
61870;BME280;47810;42.264;23.826;2023-04-03T10:10:37;93103.03;;;11.72;55.25
61870;BME280;47810;42.264;23.826;2023-04-03T10:13:05;93097.50;;;11.75;56.86
61870;BME280;47810;42.264;23.826;2023-04-03T10:15:34;93098.59;;;11.73;56.84
61870;BME280;47810;42.264;23.826;2023-04-03T10:18:02;93095.81;;;11.74;56.56
61870;BME280;47810;42.264;23.826;2023-04-03T10:28:06;93091.00;;;11.68;58.23
61870;BME280;47810;42.264;23.826;2023-04-03T10:39:00;93103.44;;;11.02;61.67
61870;BME280;47810;42.264;23.826;2023-04-03T10:41:45;93112.41;;;10.88;61.66
61870;BME280;47810;42.264;23.826;2023-04-03T10:52:06;93119.50;;;10.87;66.19
61870;BME280;47810;42.264;23.826;2023-04-03T10:57:30;93116.84;;;10.65;68.05
61870;BME280;47810;42.264;23.826;2023-04-03T11:00:05;93119.88;;;10.60;68.05
61870;BME280;47810;42.264;23.826;2023-04-03T11:36:48;93125.09;;;9.43;72.49
61870;BME280;47810;42.264;23.826;2023-04-03T11:39:20;93128.00;;;9.51;73.00
61870;BME280;47810;42.264;23.826;2023-04-03T11:41:48;93113.38;;;9.47;73.56
61870;BME280;47810;42.264;23.826;2023-04-03T11:47:10;93117.69;;;9.48;73.43
61870;BME280;47810;42.264;23.826;2023-04-03T11:49:53;93113.44;;;9.59;74.58
61870;BME280;47810;42.264;23.826;2023-04-03T12:13:41;93093.31;;;9.57;75.11
61870;BME280;47810;42.264;23.826;2023-04-03T12:21:21;93075.31;;;9.27;76.41
61870;BME280;47810;42.264;23.826;2023-04-03T12:26:34;93081.88;;;9.22;77.71
61870;BME280;47810;42.264;23.826;2023-04-03T12:29:02;93080.41;;;9.18;77.82
61870;BME280;47810;42.264;23.826;2023-04-03T12:31:41;93073.47;;;9.17;78.47
61870;BME280;47810;42.264;23.826;2023-04-03T12:36:39;93055.25;;;9.14;78.48
61870;BME280;47810;42.264;23.826;2023-04-03T12:39:17;93051.03;;;9.11;78.65
61870;BME280;47810;42.264;23.826;2023-04-03T12:41:50;93044.50;;;8.93;79.70
61870;BME280;47810;42.264;23.826;2023-04-03T12:44:24;93038.13;;;8.95;79.15
61870;BME280;47810;42.264;23.826;2023-04-03T12:46:52;93033.09;;;8.92;79.53
61870;BME280;47810;42.264;23.826;2023-04-03T12:51:56;93033.97;;;8.93;79.01
61870;BME280;47810;42.264;23.826;2023-04-03T12:54:40;93032.72;;;8.73;80.03
61870;BME280;47810;42.264;23.826;2023-04-03T12:59:35;93028.97;;;8.77;80.21
61870;BME280;47810;42.264;23.826;2023-04-03T13:02:07;93027.63;;;8.58;80.10
61870;BME280;47810;42.264;23.826;2023-04-03T13:04:37;93025.66;;;8.49;80.90
61870;BME280;47810;42.264;23.826;2023-04-03T13:07:17;93024.38;;;8.55;80.29
61870;BME280;47810;42.264;23.826;2023-04-03T13:09:43;93028.38;;;8.60;81.09
61870;BME280;47810;42.264;23.826;2023-04-03T13:12:20;93023.59;;;8.66;81.30
61870;BME280;47810;42.264;23.826;2023-04-03T13:14:56;93015.94;;;8.62;80.93
61870;BME280;47810;42.264;23.826;2023-04-03T13:17:23;93015.56;;;8.43;81.03
61870;BME280;47810;42.264;23.826;2023-04-03T13:19:49;93014.16;;;8.50;81.85
61870;BME280;47810;42.264;23.826;2023-04-03T13:22:35;93008.41;;;8.45;81.53
61870;BME280;47810;42.264;23.826;2023-04-03T13:25:05;93000.16;;;8.37;82.07
61870;BME280;47810;42.264;23.826;2023-04-03T13:27:31;92999.69;;;8.32;81.50
61870;BME280;47810;42.264;23.826;2023-04-03T13:29:58;93006.50;;;8.22;82.63
61870;BME280;47810;42.264;23.826;2023-04-03T13:32:25;93003.38;;;8.16;82.96
61870;BME280;47810;42.264;23.826;2023-04-03T13:34:52;93002.13;;;8.09;84.06
61870;BME280;47810;42.264;23.826;2023-04-03T13:37:22;93000.00;;;8.02;84.11
61870;BME280;47810;42.264;23.826;2023-04-03T13:39:56;92994.53;;;8.05;83.97
61870;BME280;47810;42.264;23.826;2023-04-03T13:42:27;92993.50;;;7.94;84.10
61870;BME280;47810;42.264;23.826;2023-04-03T13:47:40;92989.19;;;8.06;84.19
61870;BME280;47810;42.264;23.826;2023-04-03T13:52:49;92979.19;;;7.86;84.77
61870;BME280;47810;42.264;23.826;2023-04-03T13:57:56;92979.53;;;7.94;84.74
61870;BME280;47810;42.264;23.826;2023-04-03T14:00:27;92974.69;;;8.01;84.57
61870;BME280;47810;42.264;23.826;2023-04-03T14:02:54;92968.06;;;7.95;84.67
61870;BME280;47810;42.264;23.826;2023-04-03T14:05:21;92970.81;;;7.93;85.10
61870;BME280;47810;42.264;23.826;2023-04-03T14:07:48;92974.16;;;7.96;85.08
61870;BME280;47810;42.264;23.826;2023-04-03T14:10:14;92968.59;;;8.00;84.90
61870;BME280;47810;42.264;23.826;2023-04-03T14:12:39;92959.47;;;7.93;84.57
61870;BME280;47810;42.264;23.826;2023-04-03T14:15:20;92970.59;;;7.84;85.12
61870;BME280;47810;42.264;23.826;2023-04-03T14:17:47;92974.16;;;7.83;85.00
61870;BME280;47810;42.264;23.826;2023-04-03T14:20:16;92967.22;;;7.82;84.98
61870;BME280;47810;42.264;23.826;2023-04-03T14:22:43;92970.59;;;7.84;85.06
61870;BME280;47810;42.264;23.826;2023-04-03T14:25:11;92961.22;;;7.80;85.92
61870;BME280;47810;42.264;23.826;2023-04-03T14:27:38;92955.97;;;7.92;85.23
61870;BME280;47810;42.264;23.826;2023-04-03T14:30:05;92965.63;;;7.92;85.08
61870;BME280;47810;42.264;23.826;2023-04-03T14:32:31;92963.84;;;7.80;85.33
61870;BME280;47810;42.264;23.826;2023-04-03T14:34:57;92961.34;;;7.78;85.77
61870;BME280;47810;42.264;23.826;2023-04-03T14:37:25;92966.81;;;7.88;84.74
61870;BME280;47810;42.264;23.826;2023-04-03T14:39:52;92957.25;;;7.87;85.24
61870;BME280;47810;42.264;23.826;2023-04-03T14:42:22;92954.41;;;7.90;85.10
61870;BME280;47810;42.264;23.826;2023-04-03T14:44:48;92942.41;;;7.73;86.28
61870;BME280;47810;42.264;23.826;2023-04-03T14:47:14;92934.13;;;7.41;86.83
61870;BME280;47810;42.264;23.826;2023-04-03T14:49:42;92943.28;;;7.48;85.72
61870;BME280;47810;42.264;23.826;2023-04-03T14:52:21;92940.31;;;7.40;82.62
61870;BME280;47810;42.264;23.826;2023-04-03T14:54:47;92929.81;;;7.40;82.46
61870;BME280;47810;42.264;23.826;2023-04-03T14:57:14;92938.44;;;7.42;83.41
61870;BME280;47810;42.264;23.826;2023-04-03T14:59:42;92928.16;;;7.64;82.19
61870;BME280;47810;42.264;23.826;2023-04-03T15:02:53;92927.53;;;7.48;83.58
61870;BME280;47810;42.264;23.826;2023-04-03T15:04:54;92920.47;;;7.61;82.38
61870;BME280;47810;42.264;23.826;2023-04-03T15:07:20;92929.81;;;7.53;83.80
61870;BME280;47810;42.264;23.826;2023-04-03T15:09:46;92915.53;;;7.57;84.00
61870;BME280;47810;42.264;23.826;2023-04-03T15:12:11;92915.09;;;7.76;83.36
61870;BME280;47810;42.264;23.826;2023-04-03T15:14:37;92906.94;;;7.42;84.88
61870;BME280;47810;42.264;23.826;2023-04-03T15:17:04;92902.72;;;7.52;85.27
61870;BME280;47810;42.264;23.826;2023-04-03T15:19:35;92896.22;;;7.45;85.33
61870;BME280;47810;42.264;23.826;2023-04-03T15:22:01;92898.94;;;7.56;84.74